Aughton, United Kingdom
Current Conditions -  °F | °C
As of 8:20 PM on Friday 21 Nov 2014 (Local Time) from EGCN Reporting Station
Moderate Rain Moderate Rain  
Wind Chill:   Ceiling: 1100
Heat Index:   Visibility: 3mi
Dew Point:   Wind: 13mph
Humidity: 93%   Direction: 130°SE
Pressure: 29.97"   Gusts: NA
Location:  53.36°N, 1.27°W
Report Text: EGCN 212020Z 13011KT 5000 RA SCT007 BKN011 09/08 Q1015
Loading
Personal Weather Stations






























Interactive Weather Map New forecast layout! Learn more

10-Day Weather Forecast

Advertisements
Track Severe Weather on mobile